Lazdijai, Lithuania

8:56 PM EEST on October 25, 2014 (GMT +0300)
Karuzai | Change Station
CLOSE
Current Station
Personal Weather Station
Location: Karuzu k., Lazdiju raj.
Elevation: 407 ft
Nearby Weather Stations

Elev 407 ft 54.23 °N, 23.51 °E | Updated 41 minutes ago

Clear
Clear
32.4 °F
Feels Like 28 °F
N
4.5
Wind Variable Wind from SW
Gusts 5.4 mph

Today
High -- | Low -- °F
--% Chance of Precip.
Yesterday
High -- | Low -- °F
Precip. -- in
8:12 AM 6:06 PM
Waxing Crescent, 4% visible
Pressure 30.36 in
Visibility -9999.0 miles
Clouds
Windchill 28 °F
Dew Point 13 °F
Humidity 45%
Rainfall 0.00 in
Snow Depth Not available.
UV Not available.
Pollen Not available.
Air Quality Not available.
Flu Activity Not available.
METAR EYKA 251750Z 16010KT 130V190 CAVOK 01/M12 Q1028

More Conditions Fewer Conditions

Pressure 30.36 in
Visibility -9999.0 miles
Clouds
Windchill 28 °F
Dew Point 13 °F
Humidity 45%
Rainfall 0.00 in
Snow Depth Not available.
UV Not available.
Pollen Not available.
Air Quality Not available.
Flu Activity Not available.
METAR EYKA 251750Z 16010KT 130V190 CAVOK 01/M12 Q1028

More Conditions Fewer Conditions

10-Day Weather Forecast

Almanac

Astronomy

Oct. 25, 2014 Rise Set
Actual Time 8:12 AM EEST 6:06 PM EEST
Civil Twilight 7:36 AM EEST 6:42 PM EEST
Nautical Twilight 6:54 AM EEST 7:24 PM EEST
Astronomical Twilight 6:13 AM EEST 8:05 PM EEST
Moon 9:43 AM EEST 7:02 PM EEST
Length of Visible Light 11h 06m
Length of Day
9h 53m
Tomorrow will be 4m 7s shorter.
Waxing Crescent, 4% of the Moon is Illuminated
Today
Waxing Crescent
Oct 30
First Quarter
Nov 6
Full
Nov 14
Last Quarter
Nov 22
New

Today's Extremes

Country Highs Country Lows

Community

WunderPhotos

Upload Photos

1,764,919 photos uploaded!

Nearby

Snow Depth

Not available.

Earthquake Activity

City Distance Mag. Time & Date
No recent earthquake activity has been reported nearby.
Minimum magnitude displayed is 2.5.

Coastal Water Temperatures

Place Temperature
No Stations Reporting

Nearby Weather Stations